Time;durP1;ratioP1;P1;durP2;ratioP2;P2;SDS_P1;SDS_P2;PMS_P1;PMS_P2;Temp;Humidity;BMP_temperature;BMP_pressure;BME280_temperature;BME280_humidity;BME280_pressure;Samples;Min_cycle;Max_cycle;Signal;HPM_P1;HPM_P2
2021/05/19 00:00:07;;;;;;;28.53;25.60;;;8.50;99.90;;;;;;5074959;28;20493;-71
2021/05/19 00:02:33;;;;;;;29.87;26.67;;;8.50;99.90;;;;;;5075381;28;20251;-72
2021/05/19 00:04:58;;;;;;;29.57;26.57;;;8.50;99.90;;;;;;5059802;28;20514;-71
2021/05/19 00:07:24;;;;;;;28.83;25.97;;;8.40;99.90;;;;;;5054827;28;20168;-71
2021/05/19 00:09:49;;;;;;;28.07;25.37;;;8.50;99.90;;;;;;5054912;28;20171;-71
2021/05/19 00:12:15;;;;;;;28.57;25.93;;;8.40;99.90;;;;;;5054778;28;20215;-71
2021/05/19 00:14:41;;;;;;;29.70;26.70;;;8.40;99.90;;;;;;5057196;28;20176;-71
2021/05/19 00:17:07;;;;;;;28.87;26.07;;;8.40;99.90;;;;;;5075126;28;20168;-71
2021/05/19 00:19:32;;;;;;;28.63;26.03;;;8.30;99.90;;;;;;5074660;28;20891;-71
2021/05/19 00:21:58;;;;;;;26.87;24.37;;;8.30;99.90;;;;;;5074499;28;20173;-71
2021/05/19 00:24:23;;;;;;;27.80;25.03;;;8.30;99.90;;;;;;5074621;28;20164;-71
2021/05/19 00:26:49;;;;;;;30.00;26.90;;;8.30;99.90;;;;;;5074620;28;20171;-71
2021/05/19 00:29:15;;;;;;;30.30;27.40;;;8.30;99.90;;;;;;5074497;28;20164;-71
2021/05/19 00:31:42;;;;;;;29.37;26.57;;;8.30;99.90;;;;;;5073451;28;20181;-71
2021/05/19 00:34:11;;;;;;;34.27;30.67;;;8.30;99.90;;;;;;5073453;28;20773;-71
2021/05/19 00:36:37;;;;;;;62.03;46.73;;;8.30;99.90;;;;;;5073242;28;20542;-71
2021/05/19 00:39:04;;;;;;;56.23;41.90;;;8.30;99.90;;;;;;5074188;28;20383;-71
2021/05/19 00:41:30;;;;;;;44.50;36.30;;;8.30;99.90;;;;;;5074049;28;20474;-71
2021/05/19 00:44:05;;;;;;;40.63;36.20;;;8.30;99.90;;;;;;5054417;28;20498;-71
2021/05/19 00:46:32;;;;;;;38.53;33.80;;;8.30;99.90;;;;;;5054329;28;20186;-71
2021/05/19 00:48:57;;;;;;;34.63;31.03;;;8.30;99.90;;;;;;5058891;28;20414;-71
2021/05/19 00:51:23;;;;;;;33.77;30.37;;;8.30;99.90;;;;;;5074141;28;20413;-71
2021/05/19 00:53:48;;;;;;;33.10;29.93;;;8.20;99.90;;;;;;5073929;28;20168;-71
2021/05/19 00:56:15;;;;;;;31.87;28.70;;;8.20;99.90;;;;;;5073999;28;20176;-71
2021/05/19 00:58:41;;;;;;;34.40;30.80;;;8.20;99.90;;;;;;5073835;28;20183;-71
2021/05/19 01:01:07;;;;;;;36.57;32.97;;;8.20;99.90;;;;;;5074320;28;20473;-71
2021/05/19 01:03:32;;;;;;;36.07;32.17;;;8.20;99.90;;;;;;5071166;28;20469;-71
2021/05/19 01:06:02;;;;;;;35.47;30.87;;;8.20;99.90;;;;;;5054083;28;20264;-71
2021/05/19 01:11:15;;;;;;;33.97;30.40;;;8.30;99.90;;;;;;5052807;28;20391;-71
2021/05/19 01:13:43;;;;;;;34.17;30.67;;;8.30;99.90;;;;;;5053376;28;20841;-71
2021/05/19 01:16:09;;;;;;;33.47;30.17;;;8.30;99.90;;;;;;5053668;28;20405;-71
2021/05/19 01:18:36;;;;;;;33.53;30.33;;;8.30;99.90;;;;;;5053565;28;20781;-71
2021/05/19 01:21:03;;;;;;;33.87;30.57;;;8.30;99.90;;;;;;5053451;28;20423;-71
2021/05/19 01:23:30;;;;;;;31.20;28.20;;;8.30;99.90;;;;;;5053855;28;20415;-71
2021/05/19 01:25:58;;;;;;;35.47;29.47;;;8.30;99.90;;;;;;5053364;28;20391;-71
2021/05/19 01:28:24;;;;;;;31.57;28.33;;;8.30;99.90;;;;;;5053619;28;20452;-71
2021/05/19 01:30:50;;;;;;;30.07;27.03;;;8.30;99.90;;;;;;5053454;28;20404;-71
2021/05/19 01:33:16;;;;;;;30.53;27.50;;;8.20;99.90;;;;;;5055267;28;20513;-71
2021/05/19 01:35:43;;;;;;;30.27;27.17;;;8.20;99.90;;;;;;5072740;28;20430;-71
2021/05/19 01:38:09;;;;;;;29.63;26.73;;;8.20;99.90;;;;;;5071592;28;20417;-71
2021/05/19 01:40:35;;;;;;;30.40;27.30;;;8.10;99.90;;;;;;5062398;28;20411;-71
2021/05/19 01:43:02;;;;;;;29.37;26.43;;;8.10;99.90;;;;;;5053081;28;20243;-71
2021/05/19 01:45:28;;;;;;;29.70;26.80;;;8.10;99.90;;;;;;5053429;28;20403;-71
2021/05/19 01:47:55;;;;;;;27.90;25.20;;;8.00;99.90;;;;;;5052778;28;20721;-71
2021/05/19 01:50:24;;;;;;;29.57;26.33;;;8.10;99.90;;;;;;5052993;28;20488;-71
2021/05/19 01:52:52;;;;;;;31.97;28.77;;;8.10;99.90;;;;;;5052907;28;20984;-71
2021/05/19 01:55:18;;;;;;;30.23;27.40;;;8.20;99.90;;;;;;5052968;28;20725;-71
2021/05/19 01:57:45;;;;;;;30.40;27.50;;;8.20;99.90;;;;;;5053504;28;20553;-71
2021/05/19 02:00:13;;;;;;;30.00;27.00;;;8.30;99.90;;;;;;5053277;28;20185;-71
2021/05/19 02:02:40;;;;;;;30.10;27.30;;;8.30;99.90;;;;;;5052903;28;20399;-71
2021/05/19 02:05:09;;;;;;;28.77;25.97;;;8.30;99.90;;;;;;5069798;28;20429;-71
2021/05/19 02:07:36;;;;;;;29.23;26.27;;;8.30;99.90;;;;;;5072799;28;20390;-71
2021/05/19 02:10:05;;;;;;;28.17;25.50;;;8.30;99.90;;;;;;5072751;28;20420;-71
2021/05/19 02:12:31;;;;;;;29.77;26.83;;;8.40;99.90;;;;;;5072546;28;20528;-71
2021/05/19 02:14:56;;;;;;;27.93;25.23;;;8.40;99.90;;;;;;5059309;28;20426;-72
2021/05/19 02:17:26;;;;;;;26.97;24.37;;;8.50;99.90;;;;;;5052653;28;20585;-71
2021/05/19 02:19:52;;;;;;;25.20;22.73;;;8.50;99.90;;;;;;5053322;28;20580;-71
2021/05/19 02:22:17;;;;;;;27.30;24.60;;;8.50;99.90;;;;;;5052824;28;20428;-71
2021/05/19 02:24:43;;;;;;;28.03;25.23;;;8.50;99.90;;;;;;5052626;28;20217;-71
2021/05/19 02:27:08;;;;;;;25.67;23.30;;;8.50;99.90;;;;;;5052534;28;20172;-71
2021/05/19 02:29:34;;;;;;;27.57;24.87;;;8.50;99.90;;;;;;5052705;28;20244;-71
2021/05/19 02:31:59;;;;;;;27.60;25.07;;;8.60;99.90;;;;;;5053304;28;20204;-68
2021/05/19 02:34:25;;;;;;;27.00;24.40;;;8.50;99.90;;;;;;5066488;28;20267;-68
2021/05/19 02:36:53;;;;;;;25.60;23.17;;;8.50;99.90;;;;;;5072817;28;20170;-68
2021/05/19 02:39:19;;;;;;;27.13;24.53;;;8.50;99.90;;;;;;5072454;28;20689;-68
2021/05/19 02:41:44;;;;;;;26.73;24.23;;;8.50;99.90;;;;;;5072460;28;20391;-68
2021/05/19 02:44:10;;;;;;;27.77;24.87;;;8.50;99.90;;;;;;5072448;28;20160;-68
2021/05/19 02:46:36;;;;;;;28.83;26.13;;;8.50;99.90;;;;;;5072559;28;20490;-68
2021/05/19 02:49:03;;;;;;;26.30;23.83;;;8.50;99.90;;;;;;5071549;28;20262;-69
2021/05/19 02:51:32;;;;;;;27.55;24.85;;;8.40;99.90;;;;;;5072335;28;20395;-68
2021/05/19 02:53:58;;;;;;;28.40;25.80;;;8.40;99.90;;;;;;5072424;28;20420;-68
2021/05/19 02:56:24;;;;;;;28.57;25.70;;;8.40;99.90;;;;;;5072627;28;20414;-68
2021/05/19 02:58:49;;;;;;;28.40;25.70;;;8.40;99.90;;;;;;5073181;28;20771;-68
2021/05/19 03:01:15;;;;;;;27.07;24.67;;;8.40;99.90;;;;;;5076196;28;20527;-68
2021/05/19 03:03:41;;;;;;;27.50;24.80;;;8.40;99.90;;;;;;5059338;28;20187;-68
2021/05/19 03:06:07;;;;;;;27.80;24.53;;;8.40;99.90;;;;;;5056473;28;20176;-68
2021/05/19 03:08:32;;;;;;;26.80;24.23;;;8.40;99.90;;;;;;5055932;28;20705;-68
2021/05/19 03:10:58;;;;;;;30.03;26.80;;;8.40;99.90;;;;;;5055967;28;20401;-68
2021/05/19 03:13:23;;;;;;;26.17;23.77;;;8.40;99.90;;;;;;5055676;28;20226;-68
2021/05/19 03:15:49;;;;;;;26.40;24.00;;;8.40;99.90;;;;;;5056130;28;20226;-68
2021/05/19 03:18:14;;;;;;;26.77;24.07;;;8.40;99.90;;;;;;5055949;28;20214;-68
2021/05/19 03:20:40;;;;;;;25.50;22.93;;;8.40;99.90;;;;;;5055747;28;20195;-68
2021/05/19 03:23:06;;;;;;;25.47;22.97;;;8.50;99.90;;;;;;5056213;28;20184;-68
2021/05/19 03:25:31;;;;;;;27.10;24.30;;;8.50;99.90;;;;;;5055476;28;20526;-67
2021/05/19 03:27:57;;;;;;;25.70;23.20;;;8.50;99.90;;;;;;5055627;28;20157;-68
2021/05/19 03:30:23;;;;;;;24.93;22.57;;;8.50;99.90;;;;;;5055790;28;20164;-68
2021/05/19 03:32:48;;;;;;;25.77;23.33;;;8.50;99.90;;;;;;5063884;28;20207;-68
2021/05/19 03:35:15;;;;;;;24.77;22.27;;;8.50;99.90;;;;;;5075340;28;20424;-68
2021/05/19 03:37:41;;;;;;;24.77;22.37;;;8.50;99.90;;;;;;5075429;28;20160;-68
2021/05/19 03:40:09;;;;;;;25.77;23.37;;;8.50;99.90;;;;;;5074524;28;20414;-68
2021/05/19 03:42:35;;;;;;;24.73;22.47;;;8.60;99.90;;;;;;5075673;28;20394;-68
2021/05/19 03:45:02;;;;;;;26.87;24.20;;;8.60;99.90;;;;;;5075400;28;20424;-68
2021/05/19 03:47:27;;;;;;;24.87;22.50;;;8.70;99.90;;;;;;5075334;28;20410;-68
2021/05/19 03:49:53;;;;;;;25.30;23.00;;;8.70;99.90;;;;;;5075415;28;20754;-68
2021/05/19 03:52:18;;;;;;;26.53;23.77;;;8.70;99.90;;;;;;5075034;28;20248;-68
2021/05/19 03:54:44;;;;;;;28.30;25.50;;;8.80;99.90;;;;;;5075103;28;20152;-68
2021/05/19 03:57:11;;;;;;;28.30;25.50;;;8.80;99.90;;;;;;5074266;28;20314;-68
2021/05/19 03:59:36;;;;;;;26.40;23.80;;;8.80;99.90;;;;;;5075148;28;20505;-68
2021/05/19 04:02:03;;;;;;;26.50;23.97;;;8.80;99.90;;;;;;5072701;28;20449;-68
2021/05/19 04:04:28;;;;;;;26.83;24.30;;;8.80;99.90;;;;;;5054907;28;20176;-68
2021/05/19 04:06:54;;;;;;;27.53;24.47;;;8.80;99.90;;;;;;5054873;28;20388;-68
2021/05/19 04:09:20;;;;;;;29.77;26.90;;;8.80;99.90;;;;;;5054631;28;20260;-68
2021/05/19 04:11:45;;;;;;;30.90;27.80;;;8.70;99.90;;;;;;5054986;28;20192;-68
2021/05/19 04:14:11;;;;;;;28.73;25.70;;;8.70;99.90;;;;;;5055762;28;20177;-68
2021/05/19 04:16:38;;;;;;;31.13;28.00;;;8.70;99.90;;;;;;5054750;28;20244;-68
2021/05/19 04:19:05;;;;;;;30.70;27.60;;;8.70;99.90;;;;;;5054548;28;20172;-68
2021/05/19 04:21:30;;;;;;;30.73;27.47;;;8.70;99.90;;;;;;5054602;28;20950;-68
2021/05/19 04:23:56;;;;;;;28.90;25.90;;;8.80;99.90;;;;;;5054550;28;20396;-68
2021/05/19 04:26:22;;;;;;;30.93;28.00;;;8.80;99.90;;;;;;5055112;28;20153;-68
2021/05/19 04:28:48;;;;;;;31.33;28.03;;;8.80;99.90;;;;;;5055269;28;20179;-68
2021/05/19 04:31:14;;;;;;;30.00;27.10;;;8.90;99.90;;;;;;5054845;28;20275;-68
2021/05/19 04:33:39;;;;;;;30.47;27.17;;;9.00;99.90;;;;;;5071569;28;20771;-68
2021/05/19 04:36:05;;;;;;;30.07;27.17;;;9.00;99.90;;;;;;5074395;28;20399;-68
2021/05/19 04:38:33;;;;;;;31.00;27.90;;;9.10;99.90;;;;;;5074465;28;20160;-68
2021/05/19 04:40:59;;;;;;;30.10;27.30;;;9.20;99.90;;;;;;5075141;28;20445;-68
2021/05/19 04:43:25;;;;;;;32.63;29.10;;;9.30;99.90;;;;;;5074946;28;20434;-68
2021/05/19 04:45:51;;;;;;;29.93;26.77;;;9.40;99.90;;;;;;5074283;28;20172;-68
2021/05/19 04:48:17;;;;;;;30.77;27.87;;;9.40;99.90;;;;;;5073542;28;20516;-68
2021/05/19 04:50:43;;;;;;;28.93;26.33;;;9.50;99.90;;;;;;5074196;28;20832;-68
2021/05/19 04:53:09;;;;;;;30.53;27.63;;;9.50;99.90;;;;;;5073980;28;20192;-68
2021/05/19 04:55:37;;;;;;;29.60;27.00;;;9.60;99.90;;;;;;5074756;28;20156;-68
2021/05/19 04:58:03;;;;;;;30.13;27.43;;;9.60;99.90;;;;;;5074294;28;20414;-68
2021/05/19 05:00:31;;;;;;;28.97;26.10;;;9.70;99.90;;;;;;5073765;28;20425;-68
2021/05/19 05:02:56;;;;;;;28.43;25.93;;;9.80;99.90;;;;;;5062009;28;20433;-68
2021/05/19 05:05:22;;;;;;;28.03;25.47;;;9.90;99.90;;;;;;5069077;28;20434;-68
2021/05/19 05:07:47;;;;;;;26.50;24.17;;;10.00;99.90;;;;;;5073861;28;20168;-68
2021/05/19 05:10:13;;;;;;;27.07;24.47;;;10.10;99.90;;;;;;5074359;28;20156;-68
2021/05/19 05:12:39;;;;;;;27.00;24.37;;;10.10;99.90;;;;;;5073883;28;20707;-68
2021/05/19 05:15:07;;;;;;;26.57;23.93;;;10.20;99.90;;;;;;5073683;28;20179;-68
2021/05/19 05:17:33;;;;;;;27.73;25.17;;;10.30;99.90;;;;;;5073633;28;20148;-68
2021/05/19 05:19:59;;;;;;;24.20;22.20;;;10.30;99.90;;;;;;5073659;28;20425;-68
2021/05/19 05:22:24;;;;;;;24.73;22.57;;;10.40;99.90;;;;;;5055553;28;20176;-68
2021/05/19 05:24:50;;;;;;;23.63;21.17;;;10.40;99.90;;;;;;5054297;28;20161;-68
2021/05/19 05:27:15;;;;;;;24.03;21.70;;;10.40;99.90;;;;;;5054067;28;20169;-68
2021/05/19 05:29:41;;;;;;;26.10;23.80;;;10.50;99.90;;;;;;5053667;28;20176;-68
2021/05/19 05:32:07;;;;;;;23.03;20.87;;;10.60;99.90;;;;;;5060381;28;20268;-68
2021/05/19 05:34:33;;;;;;;22.80;20.80;;;10.60;99.90;;;;;;5073316;28;20163;-68
2021/05/19 05:36:59;;;;;;;24.07;21.90;;;10.60;99.90;;;;;;5074223;28;20406;-68
2021/05/19 05:39:25;;;;;;;22.27;20.17;;;10.70;99.90;;;;;;5073116;28;20425;-68
2021/05/19 05:41:50;;;;;;;21.40;19.60;;;10.80;99.90;;;;;;5073312;28;20578;-68
2021/05/19 05:44:16;;;;;;;21.60;19.70;;;10.80;99.90;;;;;;5073400;28;20398;-68
2021/05/19 05:46:42;;;;;;;23.27;21.17;;;10.90;99.90;;;;;;5073496;28;20156;-68
2021/05/19 05:49:08;;;;;;;21.07;19.20;;;11.00;99.90;;;;;;5073238;28;20251;-68
2021/05/19 05:51:34;;;;;;;22.20;20.00;;;11.10;99.90;;;;;;5073215;28;20474;-68
2021/05/19 05:54:00;;;;;;;21.43;19.43;;;11.20;99.90;;;;;;5073824;28;20160;-68
2021/05/19 05:56:26;;;;;;;20.67;18.87;;;11.20;99.90;;;;;;5072347;28;20408;-68
2021/05/19 05:58:51;;;;;;;19.37;17.77;;;11.30;99.90;;;;;;5072955;28;20560;-68
2021/05/19 06:01:17;;;;;;;20.10;18.20;;;11.30;99.90;;;;;;5072626;28;20197;-68
2021/05/19 06:03:42;;;;;;;21.00;19.00;;;11.30;99.90;;;;;;5052916;28;20188;-68
2021/05/19 06:06:08;;;;;;;19.20;17.30;;;11.30;99.90;;;;;;5054764;28;20159;-68
2021/05/19 06:08:34;;;;;;;17.50;15.80;;;11.30;99.90;;;;;;5053365;28;20179;-68
2021/05/19 06:10:59;;;;;;;17.93;16.33;;;11.30;99.90;;;;;;5052937;28;20176;-68
2021/05/19 06:13:25;;;;;;;18.07;16.40;;;11.40;99.90;;;;;;5053305;28;20215;-68
2021/05/19 06:15:50;;;;;;;17.30;15.77;;;11.40;99.90;;;;;;5052886;28;20618;-68
2021/05/19 06:18:16;;;;;;;17.93;16.13;;;11.50;99.90;;;;;;5052881;28;20188;-68
2021/05/19 06:20:42;;;;;;;17.20;15.60;;;11.70;99.90;;;;;;5053231;28;20164;-68
2021/05/19 06:23:07;;;;;;;16.20;14.60;;;11.90;99.90;;;;;;5053225;28;20189;-68
2021/05/19 06:25:33;;;;;;;16.40;14.70;;;12.10;99.90;;;;;;5053061;28;20711;-68
2021/05/19 06:27:59;;;;;;;16.17;13.27;;;12.20;99.90;;;;;;5052563;28;20226;-68
2021/05/19 06:30:24;;;;;;;14.50;12.20;;;12.30;99.90;;;;;;5063844;28;20237;-68
2021/05/19 06:32:50;;;;;;;16.50;13.27;;;12.40;99.90;;;;;;5052603;28;20254;-68
2021/05/19 06:35:16;;;;;;;15.57;12.43;;;12.40;99.90;;;;;;5074085;28;20574;-68
2021/05/19 06:37:42;;;;;;;13.60;12.30;;;12.40;99.90;;;;;;5076968;28;20152;-68
2021/05/19 06:40:09;;;;;;;14.53;13.00;;;12.50;99.90;;;;;;5076617;28;20214;-68
2021/05/19 06:42:34;;;;;;;13.77;12.40;;;12.50;99.90;;;;;;5076361;28;20398;-68
2021/05/19 06:45:00;;;;;;;17.90;12.23;;;12.60;99.90;;;;;;5076497;28;20937;-68
2021/05/19 06:47:25;;;;;;;15.00;11.63;;;12.80;99.90;;;;;;5075465;28;20594;-68
2021/05/19 06:49:52;;;;;;;11.87;10.67;;;13.00;99.90;;;;;;5076431;28;20191;-68
2021/05/19 06:52:18;;;;;;;12.27;11.07;;;13.20;99.90;;;;;;5068514;28;20207;-68
2021/05/19 06:54:44;;;;;;;13.80;9.67;;;13.40;99.90;;;;;;5056312;28;20390;-68
2021/05/19 06:57:10;;;;;;;12.30;10.70;;;13.60;99.90;;;;;;5056179;28;20395;-68
2021/05/19 06:59:35;;;;;;;12.13;10.40;;;13.70;99.90;;;;;;5056132;28;20685;-68
2021/05/19 07:02:01;;;;;;;9.87;8.87;;;13.80;99.90;;;;;;5074164;28;20176;-68
2021/05/19 07:04:26;;;;;;;16.87;8.97;;;13.90;99.90;;;;;;5058919;28;20595;-68
2021/05/19 07:06:52;;;;;;;10.03;9.03;;;14.00;99.90;;;;;;5056980;28;20186;-68
2021/05/19 07:09:19;;;;;;;9.87;8.97;;;14.10;99.90;;;;;;5056033;28;20160;-68
2021/05/19 07:11:45;;;;;;;16.70;9.60;;;14.10;99.90;;;;;;5055793;28;20157;-68
2021/05/19 07:14:16;;;;;;;10.00;9.00;;;14.30;99.90;;;;;;5056141;28;20941;-68
2021/05/19 07:16:58;;;;;;;10.60;8.40;;;14.40;99.90;;;;;;5055966;28;20169;-68
2021/05/19 07:19:24;;;;;;;12.27;7.90;;;14.60;99.90;;;;;;5056546;28;20394;-68
2021/05/19 07:21:51;;;;;;;8.63;7.37;;;14.80;99.90;;;;;;5059251;28;20422;-68
2021/05/19 07:24:17;;;;;;;7.00;6.30;;;15.00;99.90;;;;;;5075865;28;20184;-68
2021/05/19 07:26:45;;;;;;;7.50;6.27;;;15.30;99.90;;;;;;5075330;28;20425;-68
2021/05/19 07:29:12;;;;;;;9.87;6.03;;;15.60;99.90;;;;;;5075742;28;20871;-68
2021/05/19 07:31:39;;;;;;;7.23;5.60;;;16.00;99.90;;;;;;5076023;28;20921;-68
2021/05/19 07:34:05;;;;;;;7.57;5.10;;;16.50;99.90;;;;;;5075551;28;20421;-68
2021/05/19 07:36:30;;;;;;;7.40;5.10;;;16.80;99.90;;;;;;5075440;28;20384;-68
2021/05/19 07:38:56;;;;;;;8.53;5.80;;;17.10;99.90;;;;;;5075591;28;20156;-68
2021/05/19 07:41:23;;;;;;;7.27;5.17;;;17.50;99.90;;;;;;5075427;28;20161;-68
2021/05/19 07:43:49;;;;;;;7.70;4.80;;;18.00;99.90;;;;;;5075506;28;20189;-68
2021/05/19 07:46:15;;;;;;;5.47;4.73;;;18.80;99.90;;;;;;5075056;28;20393;-68
2021/05/19 07:48:44;;;;;;;9.67;5.17;;;19.50;97.60;;;;;;5059987;28;20417;-69
2021/05/19 07:51:10;;;;;;;7.70;4.90;;;20.00;96.40;;;;;;5055433;28;20311;-68
2021/05/19 07:53:36;;;;;;;6.13;4.70;;;20.20;93.70;;;;;;5057036;28;20555;-68
2021/05/19 07:58:43;;;;;;;6.60;5.43;;;20.10;92.90;;;;;;5110969;27;20930;-68
2021/05/19 08:03:46;;;;;;;5.47;4.40;;;21.40;88.70;;;;;;5090934;27;20572;-69
2021/05/19 08:06:11;;;;;;;4.93;3.47;;;21.80;82.30;;;;;;5104545;28;20408;-69
2021/05/19 08:08:37;;;;;;;9.93;4.03;;;21.80;80.00;;;;;;5110149;28;20220;-69
2021/05/19 08:11:03;;;;;;;4.97;3.40;;;21.60;76.40;;;;;;5096163;28;20175;-69
2021/05/19 08:13:28;;;;;;;3.87;3.10;;;21.90;77.10;;;;;;5070331;28;20385;-69
2021/05/19 08:15:54;;;;;;;6.23;3.30;;;22.50;75.00;;;;;;5068487;28;20167;-69
2021/05/19 08:18:24;;;;;;;3.30;2.80;;;23.20;67.50;;;;;;5082299;28;20213;-69
2021/05/19 08:20:49;;;;;;;5.20;3.20;;;23.20;66.90;;;;;;5090219;28;20624;-67
2021/05/19 08:23:16;;;;;;;7.37;3.40;;;23.40;65.60;;;;;;5090058;28;20497;-67
2021/05/19 08:25:41;;;;;;;4.73;4.23;;;23.80;62.50;;;;;;5088507;28;20174;-67
2021/05/19 08:28:07;;;;;;;3.10;2.20;;;24.40;61.70;;;;;;5083338;28;20407;-67
2021/05/19 08:30:32;;;;;;;2.90;2.23;;;25.20;57.50;;;;;;5069759;28;20230;-68
2021/05/19 08:32:58;;;;;;;3.10;2.30;;;25.50;54.10;;;;;;5069938;28;20178;-68
2021/05/19 08:35:24;;;;;;;6.33;2.50;;;26.00;55.20;;;;;;5087085;28;20733;-68
2021/05/19 08:37:49;;;;;;;5.37;2.70;;;26.20;52.60;;;;;;5089084;28;20536;-68
2021/05/19 08:40:15;;;;;;;6.23;2.10;;;25.90;52.40;;;;;;5099043;28;20210;-68
2021/05/19 08:42:41;;;;;;;4.13;2.23;;;25.50;52.00;;;;;;5089105;28;20209;-68
2021/05/19 08:45:09;;;;;;;7.33;2.87;;;25.10;52.10;;;;;;5082443;28;20179;-68
2021/05/19 08:47:34;;;;;;;4.93;2.77;;;24.60;54.50;;;;;;5077025;28;20163;-68
2021/05/19 08:50:02;;;;;;;3.27;2.30;;;24.20;54.90;;;;;;5089798;28;20428;-68
2021/05/19 08:52:28;;;;;;;2.70;2.20;;;23.80;55.10;;;;;;5089615;28;20151;-68
2021/05/19 08:54:55;;;;;;;6.17;2.20;;;23.40;55.80;;;;;;5090025;28;20389;-68
2021/05/19 08:57:21;;;;;;;10.43;3.00;;;23.10;57.40;;;;;;5089611;28;20200;-68
2021/05/19 08:59:47;;;;;;;5.27;3.47;;;23.00;56.70;;;;;;5075521;28;20455;-68
2021/05/19 09:02:15;;;;;;;5.53;3.37;;;22.50;56.90;;;;;;5069247;28;20945;-68
2021/05/19 09:04:41;;;;;;;4.40;4.00;;;22.10;59.10;;;;;;5068287;28;20210;-68
2021/05/19 09:07:08;;;;;;;6.50;3.70;;;21.40;59.30;;;;;;5067368;28;20409;-69
2021/05/19 09:09:36;;;;;;;6.87;3.37;;;20.60;62.20;;;;;;5067488;28;20429;-69
2021/05/19 09:14:43;;;;;;;7.17;3.47;;;20.10;67.20;;;;;;5030413;28;21088;-69
2021/05/19 09:17:30;;;;;;;4.20;2.87;;;20.00;68.70;;;;;;5027295;28;20467;-69
2021/05/19 09:22:38;;;;;;;3.03;2.73;;;19.70;68.00;;;;;;5026964;27;20931;-69
2021/05/19 09:25:26;;;;;;;4.67;3.00;;;19.20;73.40;;;;;;5027066;28;20392;-69
2021/05/19 09:27:56;;;;;;;6.57;3.83;;;18.90;82.30;;;;;;5025969;28;20390;-68
2021/05/19 09:36:15;;;;;;;26.63;12.73;;;18.50;91.30;;;;;;5106497;27;21085;-68
2021/05/19 09:38:43;;;;;;;12.23;7.57;;;17.10;99.90;;;;;;5089881;28;20408;-68
2021/05/19 09:41:31;;;;;;;8.70;5.10;;;16.80;99.90;;;;;;5090117;28;20479;-68
2021/05/19 09:43:59;;;;;;;5.60;4.03;;;16.60;99.90;;;;;;5089592;28;20478;-68
2021/05/19 09:46:34;;;;;;;14.17;8.40;;;16.70;99.90;;;;;;5090823;28;20421;-68
2021/05/19 09:49:21;;;;;;;10.80;5.80;;;17.00;99.90;;;;;;5090370;28;20820;-68
2021/05/19 09:51:52;;;;;;;6.63;3.43;;;17.10;99.90;;;;;;5089267;28;20829;-68
2021/05/19 09:54:33;;;;;;;7.00;2.80;;;17.10;99.90;;;;;;5090107;28;20452;-68
2021/05/19 09:57:04;;;;;;;7.57;2.87;;;16.90;99.90;;;;;;5090515;28;20421;-68
2021/05/19 09:59:30;;;;;;;9.03;2.40;;;16.70;99.90;;;;;;5090330;28;20431;-68
2021/05/19 10:01:57;;;;;;;7.43;2.50;;;16.50;99.90;;;;;;5090506;28;20400;-68
2021/05/19 10:04:28;;;;;;;7.60;2.70;;;16.30;99.90;;;;;;5090176;28;20394;-68
2021/05/19 10:06:55;;;;;;;8.70;2.87;;;16.30;99.90;;;;;;5070592;28;20416;-68
2021/05/19 10:09:21;;;;;;;4.33;2.30;;;16.50;99.90;;;;;;5068991;28;20981;-68
2021/05/19 10:11:47;;;;;;;7.10;2.70;;;16.80;99.90;;;;;;5069635;28;20481;-68
2021/05/19 10:14:14;;;;;;;3.70;1.90;;;17.10;99.90;;;;;;5085564;28;20710;-68
2021/05/19 10:16:44;;;;;;;7.93;2.37;;;17.30;99.90;;;;;;5089932;28;20757;-68
2021/05/19 10:19:14;;;;;;;5.77;1.80;;;17.50;99.90;;;;;;5089411;28;20448;-68
2021/05/19 10:21:40;;;;;;;5.30;1.50;;;17.60;99.90;;;;;;5088959;28;20416;-68
2021/05/19 10:24:08;;;;;;;6.87;1.70;;;17.70;99.90;;;;;;5088940;28;20773;-68
2021/05/19 10:27:09;;;;;;;5.13;1.77;;;17.80;99.90;;;;;;5087852;28;20416;-68
2021/05/19 10:29:53;;;;;;;3.50;1.53;;;18.00;99.90;;;;;;5088548;28;20419;-68
2021/05/19 10:35:03;;;;;;;3.07;1.37;;;18.20;99.90;;;;;;5109261;27;20518;-68
2021/05/19 10:43:00;;;;;;;6.43;1.50;;;18.60;99.10;;;;;;5110886;27;20877;-69
2021/05/19 10:45:27;;;;;;;4.33;1.60;;;18.40;95.60;;;;;;5105645;28;20474;-69
2021/05/19 10:47:53;;;;;;;3.63;1.47;;;18.20;96.10;;;;;;5095086;28;20401;-69
2021/05/19 10:50:32;;;;;;;4.30;1.80;;;18.10;95.70;;;;;;5094357;28;20405;-69
2021/05/19 10:58:49;;;;;;;5.83;1.80;;;17.40;96.70;;;;;;5123786;28;20431;-69
2021/05/19 11:01:15;;;;;;;5.40;1.27;;;17.30;97.30;;;;;;5105080;28;20424;-69
2021/05/19 11:04:16;;;;;;;6.23;2.90;;;17.40;99.10;;;;;;5094905;28;20404;-69
2021/05/19 11:09:37;;;;;;;6.00;2.43;;;17.30;98.70;;;;;;5090653;27;20511;-68
2021/05/19 11:15:03;;;;;;;4.33;1.97;;;17.10;98.80;;;;;;5130636;27;20515;-68
2021/05/19 11:17:53;;;;;;;3.60;1.50;;;17.00;99.30;;;;;;5112783;28;20404;-68
2021/05/19 11:20:16;;;;;;;3.70;1.70;;;16.90;98.90;;;;;;5121366;28;20395;-68
2021/05/19 11:22:42;;;;;;;3.47;1.40;;;16.90;98.70;;;;;;5126181;28;20935;-68
2021/05/19 11:25:08;;;;;;;2.13;1.50;;;17.00;99.20;;;;;;5129741;28;20665;-68
2021/05/19 11:27:36;;;;;;;6.87;1.60;;;17.00;97.90;;;;;;5127153;28;20634;-68
2021/05/19 11:30:05;;;;;;;4.87;2.70;;;17.10;98.70;;;;;;5126362;28;20408;-68
2021/05/19 11:32:31;;;;;;;2.60;1.80;;;17.30;98.20;;;;;;5129291;28;20444;-68
2021/05/19 11:35:15;;;;;;;3.67;1.83;;;17.40;97.60;;;;;;5124768;28;20456;-68
2021/05/19 11:38:02;;;;;;;7.20;3.67;;;17.40;96.00;;;;;;5110673;28;20443;-68
2021/05/19 11:40:49;;;;;;;4.90;2.10;;;17.50;96.30;;;;;;5114887;28;20408;-68
2021/05/19 11:43:16;;;;;;;6.67;3.43;;;17.50;96.90;;;;;;5113744;28;20428;-68
2021/05/19 11:45:44;;;;;;;7.97;3.57;;;17.60;96.30;;;;;;5110440;28;20403;-68
2021/05/19 11:48:29;;;;;;;8.73;3.67;;;17.60;98.70;;;;;;5111102;28;20816;-68
2021/05/19 11:50:56;;;;;;;8.67;4.93;;;17.50;99.90;;;;;;5113275;27;20411;-69
2021/05/19 11:53:22;;;;;;;5.07;3.47;;;17.60;99.90;;;;;;5110109;28;20448;-68
2021/05/19 11:58:27;;;;;;;7.30;3.00;;;17.70;99.90;;;;;;5109277;27;20568;-68
2021/05/19 12:03:31;;;;;;;3.80;2.00;;;18.00;99.90;;;;;;5121358;27;20551;-68
2021/05/19 12:06:03;;;;;;;4.67;2.07;;;17.90;99.90;;;;;;5101414;28;20411;-68
2021/05/19 12:11:12;;;;;;;6.93;2.10;;;17.80;99.90;;;;;;5111457;27;20513;-68
2021/05/19 12:13:43;;;;;;;6.40;2.50;;;17.50;99.90;;;;;;5089560;28;20769;-68
2021/05/19 12:16:16;;;;;;;12.87;3.60;;;17.20;99.90;;;;;;5071589;28;20413;-69
2021/05/19 12:18:58;;;;;;;6.87;2.57;;;16.80;99.90;;;;;;5084949;28;20412;-69
2021/05/19 12:21:24;;;;;;;3.10;1.90;;;16.50;99.90;;;;;;5090497;28;20870;-69
2021/05/19 12:23:53;;;;;;;3.43;2.10;;;16.20;99.90;;;;;;5087704;28;20463;-69
2021/05/19 12:26:19;;;;;;;2.80;2.50;;;16.10;99.90;;;;;;5077175;28;20166;-69
2021/05/19 12:28:46;;;;;;;10.00;3.17;;;16.20;99.90;;;;;;5074599;28;20405;-69
2021/05/19 12:31:26;;;;;;;4.80;1.93;;;16.30;99.90;;;;;;5089129;28;20420;-68
2021/05/19 12:33:51;;;;;;;7.90;3.80;;;16.30;99.90;;;;;;5070065;28;20397;-68
2021/05/19 12:39:04;;;;;;;7.27;2.87;;;16.10;99.90;;;;;;5091655;28;20502;-69
2021/05/19 12:44:17;;;;;;;7.23;3.20;;;15.90;99.90;;;;;;5084066;28;21053;-69
2021/05/19 12:49:35;;;;;;;3.70;2.30;;;15.60;99.90;;;;;;5078959;27;20570;-69
2021/05/19 12:52:06;;;;;;;4.13;2.90;;;15.50;99.90;;;;;;5091343;28;20389;-69
2021/05/19 12:54:34;;;;;;;7.03;3.97;;;15.40;99.90;;;;;;5080816;28;20441;-69
2021/05/19 13:00:00;;;;;;;3.63;3.33;;;15.30;99.90;;;;;;5153366;27;20588;-69
2021/05/19 13:02:30;;;;;;;4.27;2.87;;;15.40;99.90;;;;;;5130768;27;20407;-69
2021/05/19 13:04:56;;;;;;;4.80;2.20;;;15.40;99.90;;;;;;5144985;27;20414;-69
2021/05/19 13:07:23;;;;;;;7.43;2.93;;;15.40;99.90;;;;;;5141259;27;20432;-69
2021/05/19 13:15:44;;;;;;;5.70;2.10;;;15.70;99.90;;;;;;5110593;27;20861;-69
2021/05/19 13:18:39;;;;;;;4.00;2.23;;;15.90;99.90;;;;;;5104618;28;20502;-69
2021/05/19 13:21:12;;;;;;;10.47;2.40;;;15.90;99.90;;;;;;5108999;28;20399;-69
2021/05/19 13:23:47;;;;;;;5.03;1.50;;;16.00;99.90;;;;;;5107368;28;20490;-69
2021/05/19 13:26:15;;;;;;;5.47;2.03;;;16.10;99.90;;;;;;5107850;28;20563;-69
2021/05/19 13:28:43;;;;;;;3.33;1.80;;;16.10;99.90;;;;;;5099040;28;20431;-69
2021/05/19 13:31:10;;;;;;;7.80;2.60;;;16.10;99.90;;;;;;5089979;28;20404;-69
2021/05/19 13:36:30;;;;;;;6.33;2.53;;;16.00;99.90;;;;;;5089484;28;20401;-69
2021/05/19 13:38:56;;;;;;;5.37;2.83;;;15.90;99.90;;;;;;5106253;28;20427;-69
2021/05/19 13:41:26;;;;;;;8.57;2.80;;;15.70;99.90;;;;;;5110382;28;20392;-69
2021/05/19 13:43:52;;;;;;;3.73;2.47;;;15.70;99.90;;;;;;5110340;28;20574;-69
2021/05/19 13:46:18;;;;;;;4.60;1.70;;;15.50;99.90;;;;;;5110388;28;20400;-69